Time;durP1;ratioP1;P1;durP2;ratioP2;P2;SDS_P1;SDS_P2;PMS_P1;PMS_P2;Temp;Humidity;BMP_temperature;BMP_pressure;BME280_temperature;BME280_humidity;BME280_pressure;Samples;Min_cycle;Max_cycle;Signal;HPM_P1;HPM_P2
2021/05/22 00:01:35;;;;;;;16.58;11.52;;;282.50;2278.40;;;;;;5052509;28;20112;-69
2021/05/22 00:04:02;;;;;;;14.43;10.93;;;282.50;2278.40;;;;;;5051313;28;20112;-67
2021/05/22 00:06:28;;;;;;;17.67;12.10;;;282.50;2278.40;;;;;;5052424;28;20017;-69
2021/05/22 00:08:54;;;;;;;19.60;12.43;;;282.40;2278.40;;;;;;5052750;28;20074;-70
2021/05/22 00:11:20;;;;;;;16.83;12.32;;;282.40;2278.40;;;;;;5052361;28;20499;-69
2021/05/22 00:13:45;;;;;;;15.57;12.38;;;282.40;2278.40;;;;;;5051657;28;20392;-69
2021/05/22 00:16:11;;;;;;;16.73;12.15;;;282.40;2278.40;;;;;;5052241;28;20032;-69
2021/05/22 00:18:37;;;;;;;18.48;12.05;;;282.40;2278.40;;;;;;5052525;28;20033;-73
2021/05/22 00:21:03;;;;;;;15.10;10.80;;;282.30;2278.40;;;;;;5052177;28;20055;-68
2021/05/22 00:23:29;;;;;;;17.58;11.93;;;282.30;2278.40;;;;;;5045170;28;20029;-70
2021/05/22 00:25:54;;;;;;;13.70;10.70;;;282.30;2278.40;;;;;;5045612;28;20017;-67
2021/05/22 00:28:20;;;;;;;14.10;10.20;;;282.30;2278.40;;;;;;5052129;28;20485;-68
2021/05/22 00:30:46;;;;;;;13.40;9.50;;;282.30;2278.40;;;;;;5052262;28;20430;-70
2021/05/22 00:33:11;;;;;;;12.52;9.38;;;282.30;2278.40;;;;;;5052042;28;20083;-69
2021/05/22 00:35:37;;;;;;;13.98;9.70;;;282.30;2278.40;;;;;;5051991;28;20036;-68
2021/05/22 00:38:03;;;;;;;13.10;10.52;;;282.30;2278.40;;;;;;5052022;28;20033;-70
2021/05/22 00:40:29;;;;;;;14.70;10.30;;;282.20;2278.40;;;;;;5051897;28;20468;-68
2021/05/22 00:42:55;;;;;;;14.25;10.60;;;282.20;2278.40;;;;;;5051421;28;20177;-69
2021/05/22 00:45:23;;;;;;;12.02;9.50;;;282.20;2278.40;;;;;;5051580;28;20047;-69
2021/05/22 00:47:51;;;;;;;14.07;9.52;;;282.20;2278.40;;;;;;5051791;28;20013;-69
2021/05/22 00:50:24;;;;;;;12.25;8.60;;;282.20;2278.40;;;;;;5051735;28;20029;-69
2021/05/22 00:52:51;;;;;;;12.75;9.00;;;282.20;2278.40;;;;;;5038777;28;20048;-69
2021/05/22 00:55:17;;;;;;;11.10;8.48;;;282.20;2278.40;;;;;;5051859;28;20036;-66
2021/05/22 00:57:43;;;;;;;11.65;8.60;;;282.20;2278.40;;;;;;5051709;28;20029;-69
2021/05/22 01:00:15;;;;;;;12.18;7.97;;;282.20;2278.40;;;;;;5051749;28;20025;-68
2021/05/22 01:02:42;;;;;;;13.75;8.25;;;282.20;2278.40;;;;;;5051642;28;20025;-72
2021/05/22 01:05:09;;;;;;;11.23;8.40;;;282.20;2278.40;;;;;;5051676;28;20028;-74
2021/05/22 01:07:34;;;;;;;10.20;7.90;;;282.10;2278.40;;;;;;5050186;28;20028;-76
2021/05/22 01:10:02;;;;;;;10.93;8.43;;;282.10;2278.40;;;;;;5032421;28;20026;-72
2021/05/22 01:12:32;;;;;;;12.20;8.40;;;282.10;2278.40;;;;;;5046027;28;20040;-70
2021/05/22 01:15:07;;;;;;;12.25;8.00;;;282.10;2278.40;;;;;;5051864;28;20077;-70
2021/05/22 01:17:37;;;;;;;11.68;8.43;;;282.10;2278.40;;;;;;5051213;28;20395;-70
2021/05/22 01:20:22;;;;;;;11.27;8.03;;;282.10;2278.40;;;;;;5050339;28;20031;-70
2021/05/22 01:22:56;;;;;;;9.75;7.35;;;282.10;2278.40;;;;;;5047176;28;20052;-70
2021/05/22 01:25:30;;;;;;;9.88;7.40;;;282.10;2278.40;;;;;;5040688;28;20155;-70
2021/05/22 01:27:58;;;;;;;9.93;7.68;;;282.10;2278.40;;;;;;5050357;28;20483;-69
2021/05/22 01:30:24;;;;;;;11.10;7.57;;;282.00;2278.40;;;;;;5055154;28;20357;-70
2021/05/22 01:32:50;;;;;;;10.05;7.70;;;282.00;2278.40;;;;;;5055273;28;20029;-71
2021/05/22 01:35:17;;;;;;;10.98;8.07;;;282.10;2278.40;;;;;;5055161;28;20490;-72
2021/05/22 01:37:43;;;;;;;9.95;7.65;;;282.00;2278.40;;;;;;5054796;28;20056;-69
2021/05/22 01:40:10;;;;;;;10.57;7.72;;;282.00;2278.40;;;;;;5054992;28;20472;-68
2021/05/22 01:42:36;;;;;;;9.82;7.75;;;282.00;2278.40;;;;;;5055067;28;20083;-70
2021/05/22 01:45:06;;;;;;;11.98;8.00;;;282.00;2278.40;;;;;;5054894;28;20501;-69
2021/05/22 01:47:34;;;;;;;10.68;8.00;;;282.00;2278.40;;;;;;5055237;28;20028;-69
2021/05/22 01:50:03;;;;;;;12.05;8.13;;;282.00;2278.40;;;;;;5054884;28;20021;-68
2021/05/22 01:52:33;;;;;;;10.93;8.48;;;281.90;2278.40;;;;;;5052003;28;20072;-70
2021/05/22 01:55:02;;;;;;;11.23;8.10;;;281.90;2278.40;;;;;;5054288;28;20103;-70
2021/05/22 01:57:31;;;;;;;11.32;7.70;;;281.80;2278.40;;;;;;5054360;28;20025;-68
2021/05/22 01:59:57;;;;;;;10.82;8.20;;;281.80;2278.40;;;;;;5046428;28;20041;-67
2021/05/22 02:02:46;;;;;;;12.45;8.43;;;281.80;2278.40;;;;;;5045081;28;20036;-67
2021/05/22 02:05:29;;;;;;;12.25;7.82;;;281.80;2278.40;;;;;;5049648;28;20136;-68
2021/05/22 02:07:56;;;;;;;13.20;9.18;;;281.70;2278.40;;;;;;5048766;28;20435;-70
2021/05/22 02:10:24;;;;;;;11.52;8.85;;;281.70;2278.40;;;;;;5052244;28;20032;-69
2021/05/22 02:12:52;;;;;;;12.70;8.27;;;281.70;2278.40;;;;;;5054585;28;20063;-69
2021/05/22 02:15:19;;;;;;;12.75;8.45;;;281.70;2278.40;;;;;;5054824;28;20176;-69
2021/05/22 02:17:47;;;;;;;12.55;8.32;;;281.60;2278.40;;;;;;5054404;28;20105;-69
2021/05/22 02:20:15;;;;;;;13.02;8.82;;;281.60;2278.40;;;;;;5054675;28;20111;-69
2021/05/22 02:22:43;;;;;;;15.15;8.88;;;281.60;2278.40;;;;;;5054861;28;20086;-69
2021/05/22 02:25:11;;;;;;;12.25;8.23;;;281.60;2278.40;;;;;;5054389;28;20514;-69
2021/05/22 02:27:37;;;;;;;11.80;8.65;;;281.60;2278.40;;;;;;5054563;28;20075;-69
2021/05/22 02:30:11;;;;;;;12.23;8.63;;;281.60;2278.40;;;;;;5054573;28;20021;-69
2021/05/22 02:32:40;;;;;;;10.80;8.25;;;256.90;2252.80;;;;;;5054406;28;20039;-70
2021/05/22 02:35:07;;;;;;;12.23;8.57;;;256.90;2252.80;;;;;;5053153;28;20028;-69
2021/05/22 02:37:36;;;;;;;13.07;8.60;;;281.60;2278.40;;;;;;5053089;28;20057;-74
2021/05/22 02:40:14;;;;;;;13.77;8.43;;;281.60;2278.40;;;;;;5054267;28;20032;-73
2021/05/22 02:42:45;;;;;;;13.68;9.18;;;281.60;2278.40;;;;;;5051583;28;20017;-74
2021/05/22 02:45:12;;;;;;;12.20;9.23;;;281.60;2278.40;;;;;;5053953;28;20027;-69
2021/05/22 02:47:41;;;;;;;15.15;9.02;;;256.90;2252.80;;;;;;5054577;28;20434;-70
2021/05/22 02:50:09;;;;;;;13.10;8.63;;;256.90;2252.80;;;;;;5040547;28;20025;-69
2021/05/22 02:52:37;;;;;;;12.45;8.63;;;256.90;2252.80;;;;;;5053968;28;20045;-70
2021/05/22 02:55:05;;;;;;;12.25;8.32;;;256.90;2252.80;;;;;;5054087;28;20450;-69
2021/05/22 02:57:32;;;;;;;14.85;8.38;;;256.90;2252.80;;;;;;5054427;28;20105;-69
2021/05/22 02:59:59;;;;;;;12.05;8.60;;;256.90;2252.80;;;;;;5053826;28;20063;-69
2021/05/22 03:02:25;;;;;;;11.82;8.25;;;256.90;2252.80;;;;;;5054079;28;20020;-69
2021/05/22 03:04:52;;;;;;;11.70;9.07;;;256.90;2252.80;;;;;;5054019;28;20032;-69
2021/05/22 03:07:18;;;;;;;10.63;7.68;;;256.90;2252.80;;;;;;5053830;28;20506;-70
2021/05/22 03:09:46;;;;;;;11.77;8.07;;;256.90;2252.80;;;;;;5054042;28;20032;-70
2021/05/22 03:12:18;;;;;;;10.93;7.45;;;256.90;2252.80;;;;;;5053260;28;20096;-69
2021/05/22 03:14:44;;;;;;;9.57;6.80;;;281.60;2278.40;;;;;;5054098;28;20387;-69
2021/05/22 03:17:09;;;;;;;11.30;7.68;;;281.70;2278.40;;;;;;5045140;28;20017;-69
2021/05/22 03:19:35;;;;;;;9.70;7.38;;;281.70;2278.40;;;;;;5053660;28;20021;-69
2021/05/22 03:22:01;;;;;;;10.32;7.35;;;281.70;2278.40;;;;;;5053318;28;20506;-68
2021/05/22 03:24:27;;;;;;;10.50;7.50;;;281.80;2278.40;;;;;;5053727;28;20021;-70
2021/05/22 03:26:53;;;;;;;11.98;7.35;;;281.80;2278.40;;;;;;5053490;28;20025;-69
2021/05/22 03:29:19;;;;;;;10.07;6.93;;;281.90;2278.40;;;;;;5053586;28;20436;-70
2021/05/22 03:31:45;;;;;;;10.45;7.00;;;281.90;2278.40;;;;;;5053365;28;20096;-69
2021/05/22 03:34:11;;;;;;;8.55;6.63;;;281.90;2278.40;;;;;;5053109;28;20025;-70
2021/05/22 03:36:36;;;;;;;11.20;7.10;;;282.00;2278.40;;;;;;5053174;28;20032;-69
2021/05/22 03:39:04;;;;;;;10.70;6.38;;;282.00;2278.40;;;;;;5053142;28;20053;-69
2021/05/22 03:41:30;;;;;;;9.90;7.10;;;282.00;2278.40;;;;;;5053258;28;20025;-69
2021/05/22 03:43:55;;;;;;;10.10;6.97;;;282.10;2278.40;;;;;;5052773;28;20379;-69
2021/05/22 03:46:21;;;;;;;13.43;7.90;;;282.10;2278.40;;;;;;5053105;28;20024;-70
2021/05/22 03:48:47;;;;;;;11.88;7.30;;;282.20;2278.40;;;;;;5053323;28;20388;-69
2021/05/22 03:51:13;;;;;;;9.95;6.82;;;282.20;2278.40;;;;;;5052877;28;20024;-69
2021/05/22 03:53:39;;;;;;;11.27;6.82;;;282.20;2278.40;;;;;;5052970;28;20064;-69
2021/05/22 03:56:05;;;;;;;7.95;6.22;;;282.30;2278.40;;;;;;5052901;28;20416;-69
2021/05/22 03:58:31;;;;;;;10.40;6.00;;;282.30;2278.40;;;;;;5052926;28;20369;-69
2021/05/22 04:00:57;;;;;;;10.02;7.15;;;282.40;2278.40;;;;;;5052689;28;20114;-70
2021/05/22 04:03:24;;;;;;;10.82;6.70;;;282.40;2278.40;;;;;;5052560;28;20087;-69
2021/05/22 04:05:49;;;;;;;9.82;6.88;;;282.50;2278.40;;;;;;5052812;28;20558;-69
2021/05/22 04:08:15;;;;;;;9.15;6.60;;;282.50;2278.40;;;;;;5052526;28;20025;-69
2021/05/22 04:10:41;;;;;;;9.50;6.70;;;282.50;2278.40;;;;;;5052959;28;20025;-69
2021/05/22 04:13:07;;;;;;;7.78;5.85;;;307.20;2304.00;;;;;;5052497;28;20057;-70
2021/05/22 04:15:33;;;;;;;11.40;5.90;;;307.20;2304.00;;;;;;5050743;28;20021;-69
2021/05/22 04:17:58;;;;;;;8.57;5.78;;;307.30;2304.00;;;;;;5051832;28;20021;-69
2021/05/22 04:20:24;;;;;;;9.50;6.45;;;307.40;2304.00;;;;;;5051692;28;20479;-69
2021/05/22 04:22:50;;;;;;;7.80;6.03;;;307.40;2304.00;;;;;;5052172;28;20509;-70
2021/05/22 04:25:16;;;;;;;8.18;5.95;;;307.40;2304.00;;;;;;5052121;28;20031;-69
2021/05/22 04:27:42;;;;;;;9.13;5.88;;;307.40;2304.00;;;;;;5052393;28;20020;-69
2021/05/22 04:30:08;;;;;;;11.73;6.43;;;307.60;2304.00;;;;;;5052228;28;20024;-69
2021/05/22 04:32:34;;;;;;;8.77;6.32;;;307.70;2304.00;;;;;;5052282;28;20021;-70
2021/05/22 04:35:00;;;;;;;8.25;6.00;;;307.70;2304.00;;;;;;5052316;28;20079;-70
2021/05/22 04:37:26;;;;;;;8.27;6.32;;;307.80;2304.00;;;;;;5038375;28;20025;-69
2021/05/22 04:39:52;;;;;;;11.05;6.28;;;307.90;2304.00;;;;;;5052049;28;20028;-69
2021/05/22 04:42:18;;;;;;;8.52;6.93;;;307.90;2304.00;;;;;;5052174;28;20020;-69
2021/05/22 04:44:44;;;;;;;10.88;7.10;;;308.00;2304.00;;;;;;5052177;28;20809;-70
2021/05/22 04:47:10;;;;;;;11.13;7.53;;;308.00;2304.00;;;;;;5052048;28;20025;-68
2021/05/22 04:49:35;;;;;;;10.75;8.25;;;308.10;2304.00;;;;;;5052209;28;20112;-69
2021/05/22 04:52:01;;;;;;;11.10;9.10;;;308.10;2304.00;;;;;;5051929;28;20041;-69
2021/05/22 04:54:27;;;;;;;13.10;8.48;;;308.10;2304.00;;;;;;5051882;28;20472;-69
2021/05/22 04:56:53;;;;;;;12.63;9.05;;;308.10;2304.00;;;;;;5052003;28;20082;-69
2021/05/22 04:59:19;;;;;;;13.77;7.82;;;332.80;2329.60;;;;;;5051658;28;20029;-69
2021/05/22 05:01:44;;;;;;;10.80;7.65;;;332.90;2329.60;;;;;;5051975;28;20032;-69
2021/05/22 05:04:10;;;;;;;15.63;9.30;;;333.20;2329.60;;;;;;5051851;28;20037;-73
2021/05/22 05:06:37;;;;;;;17.83;10.80;;;333.30;2329.60;;;;;;5051839;28;20029;-74
2021/05/22 05:09:04;;;;;;;12.63;7.90;;;333.50;2329.60;;;;;;5051962;28;20025;-74
2021/05/22 05:11:31;;;;;;;10.82;7.22;;;333.70;2329.60;;;;;;5051708;28;20059;-69
2021/05/22 05:13:57;;;;;;;9.77;6.90;;;358.40;2329.60;;;;;;5051860;28;20033;-69
2021/05/22 05:16:23;;;;;;;8.55;6.72;;;358.70;2329.60;;;;;;5049261;28;20028;-68
2021/05/22 05:18:49;;;;;;;12.63;7.88;;;358.80;2329.60;;;;;;5051971;28;20060;-69
2021/05/22 05:21:14;;;;;;;9.90;6.40;;;358.80;2329.60;;;;;;5051801;28;20485;-69
2021/05/22 05:23:40;;;;;;;10.40;6.18;;;358.80;2329.60;;;;;;5051892;28;20021;-70
2021/05/22 05:26:06;;;;;;;8.80;6.53;;;359.10;2329.60;;;;;;5051897;28;20098;-70
2021/05/22 05:28:33;;;;;;;8.32;6.43;;;384.00;2329.60;;;;;;5052008;28;20040;-70
2021/05/22 05:30:59;;;;;;;9.13;5.65;;;384.30;2329.60;;;;;;5051574;28;20488;-70
2021/05/22 05:33:25;;;;;;;8.98;5.88;;;384.60;2329.60;;;;;;5051450;28;20037;-69
2021/05/22 05:35:51;;;;;;;11.23;7.03;;;384.70;2329.60;;;;;;5051641;28;20032;-70
2021/05/22 05:38:17;;;;;;;8.13;6.18;;;384.80;2329.60;;;;;;5052000;28;20490;-70
2021/05/22 05:40:43;;;;;;;8.55;5.60;;;384.70;2329.60;;;;;;5051632;28;20029;-68
2021/05/22 05:43:13;;;;;;;10.57;6.13;;;384.90;2329.60;;;;;;5051767;28;20037;-71
2021/05/22 05:45:40;;;;;;;8.43;5.40;;;410.00;2355.20;;;;;;5051428;28;20025;-71
2021/05/22 05:48:07;;;;;;;9.82;6.13;;;435.30;2355.20;;;;;;5037421;28;20024;-70
2021/05/22 05:50:33;;;;;;;10.52;5.97;;;435.50;2355.20;;;;;;5051805;28;20096;-71
2021/05/22 05:52:59;;;;;;;9.25;6.10;;;460.80;2380.80;;;;;;5051219;28;20069;-70
2021/05/22 05:55:26;;;;;;;8.98;5.90;;;436.10;2355.20;;;;;;5051522;28;20025;-69
2021/05/22 05:57:55;;;;;;;9.95;6.28;;;460.80;2380.80;;;;;;5051286;28;20529;-70
2021/05/22 06:00:21;;;;;;;7.65;5.70;;;461.00;2380.80;;;;;;5051415;28;20029;-69
2021/05/22 06:02:47;;;;;;;8.32;5.30;;;461.30;2380.80;;;;;;5051065;28;20039;-70
2021/05/22 06:05:13;;;;;;;9.52;5.63;;;461.60;2380.80;;;;;;5051457;28;20559;-70
2021/05/22 06:07:40;;;;;;;11.15;6.63;;;461.50;2380.80;;;;;;5051341;28;20033;-71
2021/05/22 06:10:07;;;;;;;10.52;6.20;;;486.40;2380.80;;;;;;5051369;28;20403;-70
2021/05/22 06:12:34;;;;;;;7.50;5.45;;;486.40;2380.80;;;;;;5055043;28;20029;-70
2021/05/22 06:17:54;;;;;;;9.57;5.60;;;487.10;2380.80;;;;;;5033074;28;20514;-70
2021/05/22 06:20:20;;;;;;;7.40;5.25;;;487.10;2380.80;;;;;;5054940;28;20049;-71
2021/05/22 06:22:47;;;;;;;7.82;5.32;;;512.10;2380.80;;;;;;5054549;28;20441;-69
2021/05/22 06:25:14;;;;;;;7.57;5.00;;;512.40;2380.80;;;;;;5054658;28;20029;-70
2021/05/22 06:27:40;;;;;;;6.25;4.72;;;512.70;2380.80;;;;;;5054558;28;20024;-70
2021/05/22 06:30:08;;;;;;;7.43;4.68;;;512.40;2380.80;;;;;;5054433;28;20430;-71
2021/05/22 06:32:34;;;;;;;5.68;4.20;;;512.70;2380.80;;;;;;5054477;28;20017;-71
2021/05/22 06:35:00;;;;;;;6.15;4.43;;;512.90;2380.80;;;;;;5054614;28;20536;-70
2021/05/22 06:37:26;;;;;;;6.88;4.30;;;512.20;2380.80;;;;;;5040491;28;20059;-71
2021/05/22 06:39:53;;;;;;;6.20;3.88;;;512.20;2380.80;;;;;;5054555;28;20024;-71
2021/05/22 06:42:20;;;;;;;5.97;4.18;;;512.30;2380.80;;;;;;5054049;28;20020;-71
2021/05/22 06:44:57;;;;;;;7.63;4.93;;;512.10;2380.80;;;;;;5054161;28;20021;-71
2021/05/22 06:47:23;;;;;;;6.70;3.90;;;487.30;2380.80;;;;;;5054023;28;20028;-68
2021/05/22 06:49:49;;;;;;;5.25;3.60;;;512.00;2380.80;;;;;;5054176;28;20071;-70
2021/05/22 06:52:14;;;;;;;5.97;3.28;;;512.20;2380.80;;;;;;5054072;28;20460;-69
2021/05/22 06:54:40;;;;;;;6.30;3.45;;;487.30;2380.80;;;;;;5053925;28;20028;-70
2021/05/22 06:57:07;;;;;;;5.15;3.00;;;487.30;2380.80;;;;;;5036293;28;20108;-71
2021/05/22 06:59:32;;;;;;;5.78;3.30;;;487.20;2380.80;;;;;;5046936;28;20040;-69
2021/05/22 07:01:58;;;;;;;5.40;3.35;;;487.30;2380.80;;;;;;5053239;28;20029;-70
2021/05/22 07:04:24;;;;;;;5.70;3.30;;;487.30;2380.80;;;;;;5053246;28;20032;-70
2021/05/22 07:06:50;;;;;;;5.18;3.60;;;487.30;2380.80;;;;;;5053834;28;20017;-70
2021/05/22 07:09:16;;;;;;;7.10;3.50;;;512.20;2380.80;;;;;;5053427;28;20495;-70
2021/05/22 07:11:42;;;;;;;4.22;3.17;;;512.20;2380.80;;;;;;5053790;28;20108;-70
2021/05/22 07:14:08;;;;;;;4.95;3.55;;;512.60;2380.80;;;;;;5053576;28;20491;-70
2021/05/22 07:16:34;;;;;;;5.75;3.67;;;512.60;2380.80;;;;;;5050803;28;20112;-70
2021/05/22 07:19:00;;;;;;;5.53;3.55;;;512.60;2380.80;;;;;;5054237;28;20033;-71
2021/05/22 07:21:26;;;;;;;5.75;3.50;;;512.90;2380.80;;;;;;5052722;28;20502;-71
2021/05/22 07:23:52;;;;;;;5.13;3.40;;;512.70;2355.20;;;;;;5053462;28;20025;-70
2021/05/22 07:26:17;;;;;;;7.38;4.28;;;537.70;2355.20;;;;;;5053398;28;20040;-70
2021/05/22 07:28:43;;;;;;;5.07;3.50;;;538.10;2406.40;;;;;;5053324;28;20047;-70
2021/05/22 07:31:09;;;;;;;7.63;3.50;;;538.00;2355.20;;;;;;5053182;28;20021;-69
2021/05/22 07:33:40;;;;;;;5.25;3.15;;;537.90;2304.00;;;;;;5053128;28;20029;-70
2021/05/22 07:36:08;;;;;;;6.93;3.33;;;537.80;2304.00;;;;;;5053248;28;20052;-69
2021/05/22 07:38:33;;;;;;;5.10;3.20;;;537.80;2252.80;;;;;;5053004;28;20032;-69
2021/05/22 07:41:00;;;;;;;6.28;3.30;;;537.70;2278.40;;;;;;5053540;28;20383;-72
2021/05/22 07:43:26;;;;;;;7.72;4.10;;;538.00;2201.60;;;;;;5052960;28;20067;-73
2021/05/22 07:45:56;;;;;;;6.05;3.42;;;538.50;2176.00;;;;;;5052790;28;20340;-72
2021/05/22 07:48:22;;;;;;;6.65;3.40;;;538.30;2176.00;;;;;;5053091;28;20499;-70
2021/05/22 07:50:47;;;;;;;5.72;3.30;;;538.40;2201.60;;;;;;5052881;28;20025;-69
2021/05/22 07:53:13;;;;;;;5.15;3.50;;;538.20;2201.60;;;;;;5052893;28;20091;-72
2021/05/22 07:55:40;;;;;;;4.75;3.13;;;538.50;2201.60;;;;;;5052906;28;20028;-70
2021/05/22 07:58:06;;;;;;;5.53;3.03;;;538.30;2176.00;;;;;;5052368;28;20479;-70
2021/05/22 08:00:32;;;;;;;4.78;3.42;;;538.30;2176.00;;;;;;5052728;28;20100;-69
2021/05/22 08:02:58;;;;;;;6.68;3.42;;;563.40;2176.00;;;;;;5052424;28;20029;-69
2021/05/22 08:05:23;;;;;;;6.00;3.55;;;563.30;2176.00;;;;;;5052574;28;20430;-69
2021/05/22 08:07:49;;;;;;;6.82;3.67;;;563.60;2124.80;;;;;;5053093;28;20029;-69
2021/05/22 08:10:16;;;;;;;8.18;3.72;;;563.70;2201.60;;;;;;5044633;28;20025;-72
2021/05/22 08:12:43;;;;;;;7.43;3.70;;;563.30;2176.00;;;;;;5042041;28;20102;-70
2021/05/22 08:15:09;;;;;;;6.25;3.78;;;563.50;2201.60;;;;;;5046438;28;20021;-71
2021/05/22 08:17:35;;;;;;;6.45;3.15;;;563.50;2150.40;;;;;;5050517;28;20074;-71
2021/05/22 08:20:02;;;;;;;4.72;3.20;;;563.60;2150.40;;;;;;5050494;28;20104;-71
2021/05/22 08:22:28;;;;;;;5.82;3.50;;;563.20;2124.80;;;;;;5046566;28;20551;-74
2021/05/22 08:24:54;;;;;;;6.47;3.40;;;563.60;2227.20;;;;;;5051547;28;20040;-69
2021/05/22 08:27:21;;;;;;;5.80;3.70;;;563.60;2150.40;;;;;;5052144;28;20017;-71
2021/05/22 08:29:47;;;;;;;5.32;3.80;;;563.70;2124.80;;;;;;5052244;28;20429;-72
2021/05/22 08:32:13;;;;;;;10.00;3.40;;;563.80;2124.80;;;;;;5052494;28;20028;-72
2021/05/22 08:34:41;;;;;;;5.20;3.40;;;563.80;2124.80;;;;;;5051663;28;20025;-72
2021/05/22 08:37:09;;;;;;;4.70;3.30;;;563.60;2124.80;;;;;;5052376;28;20047;-71
2021/05/22 08:39:34;;;;;;;5.82;3.30;;;563.80;2150.40;;;;;;5051859;28;20115;-71
2021/05/22 08:42:04;;;;;;;5.85;3.53;;;588.80;2099.20;;;;;;5051951;28;20104;-72
2021/05/22 08:44:30;;;;;;;5.35;3.30;;;564.10;2048.00;;;;;;5051600;28;20028;-71
2021/05/22 08:46:56;;;;;;;5.45;3.20;;;564.10;2048.00;;;;;;5050436;28;20028;-70
2021/05/22 08:49:22;;;;;;;6.20;3.13;;;563.80;2022.40;;;;;;5034452;28;20021;-74
2021/05/22 08:51:48;;;;;;;8.68;3.55;;;563.90;2073.60;;;;;;5051704;28;20536;-72
2021/05/22 08:54:14;;;;;;;6.13;3.00;;;564.00;2073.60;;;;;;5052184;28;20037;-70
2021/05/22 08:56:39;;;;;;;6.72;3.50;;;588.90;2022.40;;;;;;5050066;28;20487;-69
2021/05/22 08:59:07;;;;;;;5.40;3.15;;;589.20;1945.60;;;;;;5051945;28;20495;-69
2021/05/22 09:01:32;;;;;;;6.53;2.95;;;589.00;1945.60;;;;;;5051824;28;20487;-69
2021/05/22 09:03:58;;;;;;;4.97;3.08;;;564.00;1920.00;;;;;;5051874;28;20037;-69
2021/05/22 09:06:24;;;;;;;6.13;3.20;;;564.10;1996.80;;;;;;5052196;28;20151;-69
2021/05/22 09:09:03;;;;;;;5.30;3.30;;;564.10;1971.20;;;;;;5051751;28;20028;-69
2021/05/22 09:11:31;;;;;;;5.28;3.20;;;589.10;1971.20;;;;;;5051610;28;20022;-69
2021/05/22 09:13:56;;;;;;;5.22;3.22;;;589.40;1945.60;;;;;;5051957;28;20024;-69
2021/05/22 09:16:35;;;;;;;4.30;2.97;;;589.40;1945.60;;;;;;5047964;28;20190;-69
2021/05/22 09:19:02;;;;;;;4.30;3.00;;;589.20;1971.20;;;;;;5033619;28;20032;-69
2021/05/22 09:21:34;;;;;;;5.63;3.40;;;589.20;2022.40;;;;;;5044803;28;20108;-69
2021/05/22 09:24:01;;;;;;;5.55;3.03;;;589.30;1996.80;;;;;;5051644;28;20075;-71
2021/05/22 09:26:32;;;;;;;5.35;2.72;;;589.30;1996.80;;;;;;5051136;28;20470;-73
2021/05/22 09:29:01;;;;;;;4.68;2.80;;;589.10;1945.60;;;;;;5049909;28;20021;-68
2021/05/22 09:31:28;;;;;;;5.03;2.88;;;589.10;1894.40;;;;;;5051426;28;20071;-68
2021/05/22 09:34:03;;;;;;;4.00;2.92;;;589.20;1971.20;;;;;;5051311;28;20060;-69
2021/05/22 09:36:28;;;;;;;4.68;3.00;;;589.50;1920.00;;;;;;5051930;28;20396;-68
2021/05/22 09:38:56;;;;;;;4.50;3.00;;;589.60;1894.40;;;;;;5039635;28;20025;-68
2021/05/22 09:41:32;;;;;;;4.72;3.00;;;614.40;1945.60;;;;;;5051294;28;20021;-69
2021/05/22 09:44:14;;;;;;;4.85;3.00;;;614.60;1843.20;;;;;;5049160;28;20066;-69
2021/05/22 09:46:46;;;;;;;6.72;2.70;;;614.70;1766.40;;;;;;5043660;28;20021;-69
2021/05/22 09:49:23;;;;;;;4.15;2.80;;;589.70;1792.00;;;;;;5054706;28;20104;-69
2021/05/22 09:51:59;;;;;;;4.93;3.00;;;589.60;1766.40;;;;;;5054596;28;20036;-74
2021/05/22 09:54:53;;;;;;;4.38;2.60;;;614.50;1843.20;;;;;;5049860;28;20040;-73
2021/05/22 09:57:42;;;;;;;4.88;2.80;;;614.60;1792.00;;;;;;5046974;28;20086;-73
2021/05/22 10:00:10;;;;;;;5.28;2.88;;;614.70;1792.00;;;;;;5051318;28;20044;-72
2021/05/22 10:02:55;;;;;;;4.03;2.63;;;614.70;1817.60;;;;;;5055110;28;20426;-70
2021/05/22 10:05:22;;;;;;;5.00;2.95;;;614.60;1740.80;;;;;;5048508;28;20033;-68
2021/05/22 10:07:50;;;;;;;6.45;3.60;;;614.60;1740.80;;;;;;5045485;28;20045;-70
2021/05/22 10:10:17;;;;;;;4.10;2.80;;;614.80;1766.40;;;;;;5054813;28;20052;-71
2021/05/22 10:12:44;;;;;;;4.80;2.53;;;614.60;1689.60;;;;;;5054732;28;20105;-74
2021/05/22 10:15:12;;;;;;;4.18;2.80;;;614.40;1715.20;;;;;;5054068;28;20021;-71
2021/05/22 10:17:39;;;;;;;4.72;2.50;;;614.60;1689.60;;;;;;5054138;28;20502;-73
2021/05/22 10:20:05;;;;;;;4.60;2.65;;;614.80;1664.00;;;;;;5050236;28;20518;-73
2021/05/22 10:22:33;;;;;;;6.28;3.72;;;614.90;1689.60;;;;;;5040164;28;20025;-71
2021/05/22 10:25:02;;;;;;;4.38;2.60;;;615.10;1664.00;;;;;;5041893;28;20472;-73
2021/05/22 10:27:28;;;;;;;4.70;2.70;;;615.10;1664.00;;;;;;5040718;28;20017;-72
2021/05/22 10:29:54;;;;;;;4.68;2.75;;;640.00;1689.60;;;;;;5050819;28;20032;-70
2021/05/22 10:32:22;;;;;;;3.70;2.50;;;640.50;1664.00;;;;;;5039848;28;20028;-68
2021/05/22 10:34:49;;;;;;;4.57;2.65;;;640.50;1587.20;;;;;;5053641;28;20039;-69
2021/05/22 10:37:45;;;;;;;3.63;2.55;;;640.50;1612.80;;;;;;5052802;28;20086;-70
2021/05/22 10:40:19;;;;;;;3.97;2.60;;;615.30;1612.80;;;;;;5053969;28;20392;-70
2021/05/22 10:42:47;;;;;;;4.55;2.50;;;640.10;1638.40;;;;;;5053742;28;20480;-71
2021/05/22 10:45:33;;;;;;;4.78;2.40;;;640.30;1612.80;;;;;;5049311;28;20037;-69
2021/05/22 10:48:04;;;;;;;3.42;2.33;;;640.30;1638.40;;;;;;5048216;28;20033;-70
2021/05/22 10:50:37;;;;;;;4.80;2.55;;;640.40;1587.20;;;;;;5033569;28;20037;-69
2021/05/22 10:53:36;;;;;;;4.85;2.50;;;640.40;1561.60;;;;;;5030600;28;20084;-68
2021/05/22 10:56:16;;;;;;;6.40;2.60;;;640.20;1587.20;;;;;;5043369;28;20051;-70
2021/05/22 10:58:57;;;;;;;;;;;640.40;1536.00;;;;;;5050027;28;20432;-70
2021/05/22 11:01:23;;;;;;;3.70;2.50;;;640.60;1536.00;;;;;;5049194;28;20337;-70
2021/05/22 11:06:43;;;;;;;4.85;2.42;;;640.60;1561.60;;;;;;5051980;28;20075;-70
2021/05/22 11:09:34;;;;;;;3.35;2.20;;;640.50;1587.20;;;;;;5046849;28;20414;-71
2021/05/22 11:12:10;;;;;;;3.13;2.17;;;640.50;1459.20;;;;;;5051965;28;20384;-70
2021/05/22 11:14:48;;;;;;;4.05;2.50;;;640.50;1510.40;;;;;;5048831;28;20119;-70
2021/05/22 11:17:22;;;;;;;3.60;2.25;;;640.40;1536.00;;;;;;5049030;28;20028;-74
2021/05/22 11:19:57;;;;;;;3.85;2.25;;;640.80;1484.80;;;;;;5035738;28;20452;-69
2021/05/22 11:22:23;;;;;;;3.88;2.42;;;665.60;1459.20;;;;;;5052557;28;20025;-69
2021/05/22 11:25:07;;;;;;;5.20;2.42;;;665.60;1484.80;;;;;;5051751;28;20029;-69
2021/05/22 11:27:46;;;;;;;3.28;2.42;;;665.60;1510.40;;;;;;5053014;28;20025;-68
2021/05/22 11:30:14;;;;;;;5.78;3.22;;;640.60;1433.60;;;;;;5051474;28;20524;-71
2021/05/22 11:32:50;;;;;;;3.85;2.58;;;640.90;1484.80;;;;;;5053240;28;20104;-69
2021/05/22 11:35:48;;;;;;;4.75;2.47;;;665.60;1433.60;;;;;;5052601;28;20051;-69
2021/05/22 11:38:23;;;;;;;3.72;2.40;;;665.60;1459.20;;;;;;5049927;28;20036;-71
2021/05/22 11:40:54;;;;;;;3.58;2.15;;;640.90;1459.20;;;;;;5052859;28;20032;-68
2021/05/22 11:43:20;;;;;;;;;;;665.60;1510.40;;;;;;5053458;28;20643;-69
2021/05/22 11:45:51;;;;;;;8.85;4.30;;;665.70;1433.60;;;;;;5051326;28;19909;-68
2021/05/22 11:48:43;;;;;;;5.80;2.80;;;665.70;1510.40;;;;;;5052426;28;20017;-68
2021/05/22 11:51:18;;;;;;;5.72;3.13;;;666.20;1561.60;;;;;;5051284;28;20040;-69
2021/05/22 11:54:01;;;;;;;7.18;2.60;;;666.20;1510.40;;;;;;5051670;28;20369;-69
2021/05/22 11:56:30;;;;;;;4.95;2.55;;;666.20;1484.80;;;;;;5052566;28;20056;-69
2021/05/22 11:58:58;;;;;;;4.10;2.75;;;666.10;1484.80;;;;;;5048004;28;20025;-68
2021/05/22 12:01:32;;;;;;;5.45;2.85;;;665.70;1510.40;;;;;;5049212;28;20044;-68
2021/05/22 12:04:04;;;;;;;3.92;2.40;;;665.90;1510.40;;;;;;5052275;28;20021;-69
2021/05/22 12:06:31;;;;;;;5.43;2.72;;;666.00;1536.00;;;;;;5043617;28;20087;-69
2021/05/22 12:09:19;;;;;;;4.50;2.30;;;666.00;1536.00;;;;;;5039755;28;20045;-70
2021/05/22 12:12:00;;;;;;;8.52;3.47;;;666.10;1484.80;;;;;;5022082;28;20034;-72
2021/05/22 12:14:47;;;;;;;4.28;2.35;;;666.50;1510.40;;;;;;5041560;28;20090;-71
2021/05/22 12:17:17;;;;;;;8.35;3.90;;;666.30;1484.80;;;;;;5051533;28;20437;-68
2021/05/22 12:19:45;;;;;;;5.32;2.67;;;691.30;1536.00;;;;;;5049691;28;20116;-69
2021/05/22 12:22:13;;;;;;;5.35;3.33;;;691.30;1484.80;;;;;;5038653;28;20186;-70
2021/05/22 12:24:39;;;;;;;5.82;3.17;;;691.30;1510.40;;;;;;5052215;28;20025;-70
2021/05/22 12:27:05;;;;;;;5.57;3.30;;;691.30;1484.80;;;;;;5051201;28;20449;-70